<?xml version="1.0" encoding="utf-8"?>
<gpx xmlns:xsi="http://www.w3.org/2001/XMLSchema-instance" xmlns:xsd="http://www.w3.org/2001/XMLSchema" version="1.1" creator="Shapelink.com" xmlns="http://www.topografix.com/GPX/1/1" xmlns:gpxtpx="http://www.garmin.com/xmlschemas/TrackPointExtension/v1">
  <metadata>
    <name>Løping 4.21 km, 2019-05-28</name>
    <desc></desc>
    <author><name>Stefan Östlund</name></author> 
    <time>2019-05-28T11:40:48Z</time>
  </metadata>
  <trk>
    <name>Løping 4.21 km, 2019-05-28</name>
    <trkseg>
      <trkpt lat="59.982204679693" lon="15.792319098363">
        <ele>98</ele>
        <time>2019-05-28T11:40:48Z</time>
      </trkpt>
      <trkpt lat="59.982102420513" lon="15.792500985593">
        <ele>99</ele>
        <time>2019-05-28T11:40:54Z</time>
      </trkpt>
      <trkpt lat="59.981979877135" lon="15.792637945839">
        <ele>98.6</ele>
        <time>2019-05-28T11:41:00Z</time>
      </trkpt>
      <trkpt lat="59.981889352615" lon="15.792765853633">
        <ele>98.4</ele>
        <time>2019-05-28T11:41:06Z</time>
      </trkpt>
      <trkpt lat="59.981778040983" lon="15.792979592083">
        <ele>97.8</ele>
        <time>2019-05-28T11:41:12Z</time>
      </trkpt>
      <trkpt lat="59.981715009095" lon="15.793132561758">
        <ele>97.2</ele>
        <time>2019-05-28T11:41:16Z</time>
      </trkpt>
      <trkpt lat="59.981607553137" lon="15.793380414541">
        <ele>97</ele>
        <time>2019-05-28T11:41:22Z</time>
      </trkpt>
      <trkpt lat="59.981604535653" lon="15.793606306746">
        <ele>97.4</ele>
        <time>2019-05-28T11:41:27Z</time>
      </trkpt>
      <trkpt lat="59.98168692973" lon="15.793848711294">
        <ele>97.6</ele>
        <time>2019-05-28T11:41:33Z</time>
      </trkpt>
      <trkpt lat="59.981769407626" lon="15.794075693146">
        <ele>98</ele>
        <time>2019-05-28T11:41:39Z</time>
      </trkpt>
      <trkpt lat="59.981808048185" lon="15.794180885991">
        <ele>98.4</ele>
        <time>2019-05-28T11:41:42Z</time>
      </trkpt>
      <trkpt lat="59.981902176922" lon="15.79438884093">
        <ele>98.6</ele>
        <time>2019-05-28T11:41:48Z</time>
      </trkpt>
      <trkpt lat="59.981997227668" lon="15.794591934367">
        <ele>98.8</ele>
        <time>2019-05-28T11:41:54Z</time>
      </trkpt>
      <trkpt lat="59.982077693908" lon="15.794752531571">
        <ele>99.6</ele>
        <time>2019-05-28T11:41:59Z</time>
      </trkpt>
      <trkpt lat="59.9821672126" lon="15.794953445714">
        <ele>100</ele>
        <time>2019-05-28T11:42:05Z</time>
      </trkpt>
      <trkpt lat="59.982248265573" lon="15.795156790608">
        <ele>100</ele>
        <time>2019-05-28T11:42:11Z</time>
      </trkpt>
      <trkpt lat="59.982329570003" lon="15.795367092479">
        <ele>100.2</ele>
        <time>2019-05-28T11:42:17Z</time>
      </trkpt>
      <trkpt lat="59.982396373746" lon="15.79551285372">
        <ele>100.2</ele>
        <time>2019-05-28T11:42:21Z</time>
      </trkpt>
      <trkpt lat="59.982313728212" lon="15.79579616194">
        <ele>100.4</ele>
        <time>2019-05-28T11:42:27Z</time>
      </trkpt>
      <trkpt lat="59.982201997485" lon="15.796019036661">
        <ele>100.4</ele>
        <time>2019-05-28T11:42:33Z</time>
      </trkpt>
      <trkpt lat="59.982131505706" lon="15.7961431726">
        <ele>101</ele>
        <time>2019-05-28T11:42:37Z</time>
      </trkpt>
      <trkpt lat="59.982032180191" lon="15.796361018181">
        <ele>100.6</ele>
        <time>2019-05-28T11:42:43Z</time>
      </trkpt>
      <trkpt lat="59.981984151904" lon="15.796484902663">
        <ele>99.8</ele>
        <time>2019-05-28T11:42:46Z</time>
      </trkpt>
      <trkpt lat="59.981895555221" lon="15.796714901999">
        <ele>99.6</ele>
        <time>2019-05-28T11:42:52Z</time>
      </trkpt>
      <trkpt lat="59.98181936375" lon="15.796949259923">
        <ele>98.8</ele>
        <time>2019-05-28T11:42:58Z</time>
      </trkpt>
      <trkpt lat="59.981809640746" lon="15.796989493043">
        <ele>98.6</ele>
        <time>2019-05-28T11:42:59Z</time>
      </trkpt>
      <trkpt lat="59.981750464532" lon="15.797269448503">
        <ele>97.6</ele>
        <time>2019-05-28T11:43:05Z</time>
      </trkpt>
      <trkpt lat="59.981716014923" lon="15.797498609649">
        <ele>96.8</ele>
        <time>2019-05-28T11:43:11Z</time>
      </trkpt>
      <trkpt lat="59.981718864769" lon="15.797534400362">
        <ele>96.6</ele>
        <time>2019-05-28T11:43:12Z</time>
      </trkpt>
      <trkpt lat="59.981743172279" lon="15.797641185768">
        <ele>95.4</ele>
        <time>2019-05-28T11:43:15Z</time>
      </trkpt>
      <trkpt lat="59.98179589443" lon="15.797732967573">
        <ele>94.2</ele>
        <time>2019-05-28T11:43:19Z</time>
      </trkpt>
      <trkpt lat="59.98183109841" lon="15.797784180982">
        <ele>93.6</ele>
        <time>2019-05-28T11:43:21Z</time>
      </trkpt>
      <trkpt lat="59.98182439289" lon="15.797823408274">
        <ele>93</ele>
        <time>2019-05-28T11:43:23Z</time>
      </trkpt>
      <trkpt lat="59.981725821746" lon="15.797780912041">
        <ele>91.8</ele>
        <time>2019-05-28T11:43:28Z</time>
      </trkpt>
      <trkpt lat="59.981578551763" lon="15.797678904318">
        <ele>91.6</ele>
        <time>2019-05-28T11:43:34Z</time>
      </trkpt>
      <trkpt lat="59.981450895426" lon="15.797615620973">
        <ele>91.8</ele>
        <time>2019-05-28T11:43:40Z</time>
      </trkpt>
      <trkpt lat="59.981411751953" lon="15.797596845517">
        <ele>92</ele>
        <time>2019-05-28T11:43:42Z</time>
      </trkpt>
      <trkpt lat="59.981280826675" lon="15.797531718154">
        <ele>92.6</ele>
        <time>2019-05-28T11:43:48Z</time>
      </trkpt>
      <trkpt lat="59.981191307983" lon="15.797484695695">
        <ele>93</ele>
        <time>2019-05-28T11:43:52Z</time>
      </trkpt>
      <trkpt lat="59.981065411845" lon="15.797359470109">
        <ele>93.8</ele>
        <time>2019-05-28T11:43:58Z</time>
      </trkpt>
      <trkpt lat="59.980948232883" lon="15.797151096075">
        <ele>94</ele>
        <time>2019-05-28T11:44:04Z</time>
      </trkpt>
      <trkpt lat="59.980830634826" lon="15.796950852484">
        <ele>94.2</ele>
        <time>2019-05-28T11:44:10Z</time>
      </trkpt>
      <trkpt lat="59.980723765601" lon="15.796755386576">
        <ele>94.4</ele>
        <time>2019-05-28T11:44:16Z</time>
      </trkpt>
      <trkpt lat="59.980620081498" lon="15.796572996432">
        <ele>94.8</ele>
        <time>2019-05-28T11:44:22Z</time>
      </trkpt>
      <trkpt lat="59.980516732671" lon="15.796408124459">
        <ele>94.8</ele>
        <time>2019-05-28T11:44:28Z</time>
      </trkpt>
      <trkpt lat="59.980417407156" lon="15.796232607473">
        <ele>94.8</ele>
        <time>2019-05-28T11:44:34Z</time>
      </trkpt>
      <trkpt lat="59.980402738831" lon="15.796204109013">
        <ele>95.2</ele>
        <time>2019-05-28T11:44:35Z</time>
      </trkpt>
      <trkpt lat="59.980293355036" lon="15.796027334742">
        <ele>95.2</ele>
        <time>2019-05-28T11:44:41Z</time>
      </trkpt>
      <trkpt lat="59.980177181902" lon="15.795859445285">
        <ele>95.4</ele>
        <time>2019-05-28T11:44:47Z</time>
      </trkpt>
      <trkpt lat="59.980060422035" lon="15.795697842253">
        <ele>95.8</ele>
        <time>2019-05-28T11:44:53Z</time>
      </trkpt>
      <trkpt lat="59.979934693535" lon="15.795541855094">
        <ele>96.2</ele>
        <time>2019-05-28T11:44:59Z</time>
      </trkpt>
      <trkpt lat="59.979917762097" lon="15.795513943367">
        <ele>96.4</ele>
        <time>2019-05-28T11:45:00Z</time>
      </trkpt>
      <trkpt lat="59.979797230375" lon="15.795350663955">
        <ele>96.4</ele>
        <time>2019-05-28T11:45:06Z</time>
      </trkpt>
      <trkpt lat="59.979681895431" lon="15.795193000416">
        <ele>96.2</ele>
        <time>2019-05-28T11:45:12Z</time>
      </trkpt>
      <trkpt lat="59.979560022605" lon="15.795035672153">
        <ele>96.4</ele>
        <time>2019-05-28T11:45:18Z</time>
      </trkpt>
      <trkpt lat="59.979444687661" lon="15.794858814063">
        <ele>96.2</ele>
        <time>2019-05-28T11:45:24Z</time>
      </trkpt>
      <trkpt lat="59.979342009386" lon="15.79468975114">
        <ele>96.8</ele>
        <time>2019-05-28T11:45:30Z</time>
      </trkpt>
      <trkpt lat="59.979231703582" lon="15.794520101484">
        <ele>96.6</ele>
        <time>2019-05-28T11:45:36Z</time>
      </trkpt>
      <trkpt lat="59.979123074158" lon="15.794350535647">
        <ele>96.8</ele>
        <time>2019-05-28T11:45:42Z</time>
      </trkpt>
      <trkpt lat="59.979012433078" lon="15.794199661447">
        <ele>97.2</ele>
        <time>2019-05-28T11:45:48Z</time>
      </trkpt>
      <trkpt lat="59.97899466345" lon="15.794172755548">
        <ele>97.4</ele>
        <time>2019-05-28T11:45:49Z</time>
      </trkpt>
      <trkpt lat="59.978888045682" lon="15.794024647375">
        <ele>97.8</ele>
        <time>2019-05-28T11:45:55Z</time>
      </trkpt>
      <trkpt lat="59.978773297471" lon="15.793859859221">
        <ele>98.2</ele>
        <time>2019-05-28T11:46:01Z</time>
      </trkpt>
      <trkpt lat="59.978659974183" lon="15.793710661401">
        <ele>98.2</ele>
        <time>2019-05-28T11:46:07Z</time>
      </trkpt>
      <trkpt lat="59.978540448289" lon="15.793571186585">
        <ele>98.4</ele>
        <time>2019-05-28T11:46:13Z</time>
      </trkpt>
      <trkpt lat="59.978502729739" lon="15.793513519113">
        <ele>98.4</ele>
        <time>2019-05-28T11:46:15Z</time>
      </trkpt>
      <trkpt lat="59.978382868569" lon="15.793359208334">
        <ele>98.8</ele>
        <time>2019-05-28T11:46:21Z</time>
      </trkpt>
      <trkpt lat="59.978266527797" lon="15.793196683293">
        <ele>99</ele>
        <time>2019-05-28T11:46:27Z</time>
      </trkpt>
      <trkpt lat="59.978153707423" lon="15.793032900967">
        <ele>98.8</ele>
        <time>2019-05-28T11:46:33Z</time>
      </trkpt>
      <trkpt lat="59.978050777691" lon="15.792858892723">
        <ele>98.4</ele>
        <time>2019-05-28T11:46:39Z</time>
      </trkpt>
      <trkpt lat="59.977937873498" lon="15.79270072627">
        <ele>98.4</ele>
        <time>2019-05-28T11:46:45Z</time>
      </trkpt>
      <trkpt lat="59.977817174138" lon="15.792544655292">
        <ele>98.2</ele>
        <time>2019-05-28T11:46:51Z</time>
      </trkpt>
      <trkpt lat="59.977704605221" lon="15.792373496894">
        <ele>97.8</ele>
        <time>2019-05-28T11:46:57Z</time>
      </trkpt>
      <trkpt lat="59.977591030476" lon="15.792202506134">
        <ele>97.6</ele>
        <time>2019-05-28T11:47:03Z</time>
      </trkpt>
      <trkpt lat="59.977557502876" lon="15.792141234445">
        <ele>97.4</ele>
        <time>2019-05-28T11:47:05Z</time>
      </trkpt>
      <trkpt lat="59.97745071747" lon="15.791962197061">
        <ele>97</ele>
        <time>2019-05-28T11:47:11Z</time>
      </trkpt>
      <trkpt lat="59.977336136897" lon="15.791780309831">
        <ele>96.2</ele>
        <time>2019-05-28T11:47:17Z</time>
      </trkpt>
      <trkpt lat="59.977197500271" lon="15.791525332433">
        <ele>96.4</ele>
        <time>2019-05-28T11:47:23Z</time>
      </trkpt>
      <trkpt lat="59.977063808966" lon="15.79125233395">
        <ele>96.6</ele>
        <time>2019-05-28T11:47:29Z</time>
      </trkpt>
      <trkpt lat="59.976930117661" lon="15.790970283015">
        <ele>96.6</ele>
        <time>2019-05-28T11:47:35Z</time>
      </trkpt>
      <trkpt lat="59.976810591767" lon="15.790669540443">
        <ele>97</ele>
        <time>2019-05-28T11:47:41Z</time>
      </trkpt>
      <trkpt lat="59.976698190488" lon="15.790386148404">
        <ele>97.4</ele>
        <time>2019-05-28T11:47:47Z</time>
      </trkpt>
      <trkpt lat="59.976586375942" lon="15.790074090267">
        <ele>97.8</ele>
        <time>2019-05-28T11:47:53Z</time>
      </trkpt>
      <trkpt lat="59.976475483405" lon="15.789770665487">
        <ele>98.2</ele>
        <time>2019-05-28T11:47:59Z</time>
      </trkpt>
      <trkpt lat="59.976347407973" lon="15.789472688942">
        <ele>98.6</ele>
        <time>2019-05-28T11:48:05Z</time>
      </trkpt>
      <trkpt lat="59.976242215128" lon="15.789149985792">
        <ele>98.2</ele>
        <time>2019-05-28T11:48:11Z</time>
      </trkpt>
      <trkpt lat="59.976132076962" lon="15.788835245447">
        <ele>98.6</ele>
        <time>2019-05-28T11:48:17Z</time>
      </trkpt>
      <trkpt lat="59.976034679284" lon="15.788541795128">
        <ele>98.6</ele>
        <time>2019-05-28T11:48:23Z</time>
      </trkpt>
      <trkpt lat="59.975931498095" lon="15.788245159687">
        <ele>99.2</ele>
        <time>2019-05-28T11:48:29Z</time>
      </trkpt>
      <trkpt lat="59.97583217258" lon="15.7879456744">
        <ele>99.2</ele>
        <time>2019-05-28T11:48:35Z</time>
      </trkpt>
      <trkpt lat="59.975731086866" lon="15.787606458907">
        <ele>99.6</ele>
        <time>2019-05-28T11:48:41Z</time>
      </trkpt>
      <trkpt lat="59.97571734055" lon="15.787484502262">
        <ele>99.8</ele>
        <time>2019-05-28T11:48:43Z</time>
      </trkpt>
      <trkpt lat="59.975669479901" lon="15.78713346829">
        <ele>99.8</ele>
        <time>2019-05-28T11:48:49Z</time>
      </trkpt>
      <trkpt lat="59.975587840195" lon="15.786783356327">
        <ele>100.2</ele>
        <time>2019-05-28T11:48:55Z</time>
      </trkpt>
      <trkpt lat="59.975566298712" lon="15.786407009017">
        <ele>100</ele>
        <time>2019-05-28T11:49:01Z</time>
      </trkpt>
      <trkpt lat="59.975537045881" lon="15.786066200963">
        <ele>99.6</ele>
        <time>2019-05-28T11:49:07Z</time>
      </trkpt>
      <trkpt lat="59.975443000963" lon="15.785757914681">
        <ele>99.2</ele>
        <time>2019-05-28T11:49:13Z</time>
      </trkpt>
      <trkpt lat="59.975422046213" lon="15.785715669905">
        <ele>99.2</ele>
        <time>2019-05-28T11:49:14Z</time>
      </trkpt>
      <trkpt lat="59.97529237822" lon="15.78546547019">
        <ele>99.4</ele>
        <time>2019-05-28T11:49:20Z</time>
      </trkpt>
      <trkpt lat="59.975141587839" lon="15.78522407147">
        <ele>99</ele>
        <time>2019-05-28T11:49:26Z</time>
      </trkpt>
      <trkpt lat="59.975002113023" lon="15.784995664695">
        <ele>99.6</ele>
        <time>2019-05-28T11:49:32Z</time>
      </trkpt>
      <trkpt lat="59.974852077013" lon="15.784777902933">
        <ele>99.6</ele>
        <time>2019-05-28T11:49:38Z</time>
      </trkpt>
      <trkpt lat="59.974672369077" lon="15.784625771448">
        <ele>99.4</ele>
        <time>2019-05-28T11:49:44Z</time>
      </trkpt>
      <trkpt lat="59.974497522643" lon="15.78446970047">
        <ele>99.8</ele>
        <time>2019-05-28T11:49:50Z</time>
      </trkpt>
      <trkpt lat="59.97434354714" lon="15.784211621769">
        <ele>99.2</ele>
        <time>2019-05-28T11:49:56Z</time>
      </trkpt>
      <trkpt lat="59.974249083127" lon="15.784042307389">
        <ele>98.4</ele>
        <time>2019-05-28T11:50:00Z</time>
      </trkpt>
      <trkpt lat="59.97410550118" lon="15.783744163206">
        <ele>98</ele>
        <time>2019-05-28T11:50:06Z</time>
      </trkpt>
      <trkpt lat="59.973964266165" lon="15.783433194716">
        <ele>97.4</ele>
        <time>2019-05-28T11:50:12Z</time>
      </trkpt>
      <trkpt lat="59.97382638391" lon="15.783151562876">
        <ele>96.8</ele>
        <time>2019-05-28T11:50:18Z</time>
      </trkpt>
      <trkpt lat="59.973736027028" lon="15.782961712841">
        <ele>96.4</ele>
        <time>2019-05-28T11:50:22Z</time>
      </trkpt>
      <trkpt lat="59.973601413714" lon="15.782673207843">
        <ele>96</ele>
        <time>2019-05-28T11:50:28Z</time>
      </trkpt>
      <trkpt lat="59.9735338556" lon="15.78251587958">
        <ele>95.2</ele>
        <time>2019-05-28T11:50:31Z</time>
      </trkpt>
      <trkpt lat="59.973396224802" lon="15.78221916032">
        <ele>94.6</ele>
        <time>2019-05-28T11:50:37Z</time>
      </trkpt>
      <trkpt lat="59.973264293696" lon="15.781894361695">
        <ele>95</ele>
        <time>2019-05-28T11:50:43Z</time>
      </trkpt>
      <trkpt lat="59.973158262661" lon="15.781551877261">
        <ele>94.4</ele>
        <time>2019-05-28T11:50:49Z</time>
      </trkpt>
      <trkpt lat="59.973050471427" lon="15.781202268212">
        <ele>94.2</ele>
        <time>2019-05-28T11:50:55Z</time>
      </trkpt>
      <trkpt lat="59.972923904737" lon="15.780916026327">
        <ele>93.8</ele>
        <time>2019-05-28T11:51:01Z</time>
      </trkpt>
      <trkpt lat="59.972829776" lon="15.780721817704">
        <ele>93.2</ele>
        <time>2019-05-28T11:51:05Z</time>
      </trkpt>
      <trkpt lat="59.972790213432" lon="15.780628946252">
        <ele>92.8</ele>
        <time>2019-05-28T11:51:07Z</time>
      </trkpt>
      <trkpt lat="59.972685523501" lon="15.780379165632">
        <ele>93</ele>
        <time>2019-05-28T11:51:13Z</time>
      </trkpt>
      <trkpt lat="59.972623162165" lon="15.780218987523">
        <ele>94.6</ele>
        <time>2019-05-28T11:51:18Z</time>
      </trkpt>
      <trkpt lat="59.972615618455" lon="15.780198200411">
        <ele>95.6</ele>
        <time>2019-05-28T11:51:21Z</time>
      </trkpt>
      <trkpt lat="59.97258418633" lon="15.780125445519">
        <ele>95.8</ele>
        <time>2019-05-28T11:51:27Z</time>
      </trkpt>
      <trkpt lat="59.972538840251" lon="15.780053696455">
        <ele>96</ele>
        <time>2019-05-28T11:51:33Z</time>
      </trkpt>
      <trkpt lat="59.97248695629" lon="15.779980271011">
        <ele>96.4</ele>
        <time>2019-05-28T11:51:39Z</time>
      </trkpt>
      <trkpt lat="59.972440101469" lon="15.779892009604">
        <ele>96.4</ele>
        <time>2019-05-28T11:51:45Z</time>
      </trkpt>
      <trkpt lat="59.972384780929" lon="15.77979595303">
        <ele>96.6</ele>
        <time>2019-05-28T11:51:51Z</time>
      </trkpt>
      <trkpt lat="59.972364832007" lon="15.779764353267">
        <ele>96.8</ele>
        <time>2019-05-28T11:51:53Z</time>
      </trkpt>
      <trkpt lat="59.972294759323" lon="15.779624040261">
        <ele>97</ele>
        <time>2019-05-28T11:51:59Z</time>
      </trkpt>
      <trkpt lat="59.972201804052" lon="15.779426981792">
        <ele>97.6</ele>
        <time>2019-05-28T11:52:05Z</time>
      </trkpt>
      <trkpt lat="59.972154530136" lon="15.779325644621">
        <ele>97.8</ele>
        <time>2019-05-28T11:52:08Z</time>
      </trkpt>
      <trkpt lat="59.972107340039" lon="15.779217015197">
        <ele>97.2</ele>
        <time>2019-05-28T11:52:12Z</time>
      </trkpt>
      <trkpt lat="59.97230674544" lon="15.779607695556">
        <ele>97.2</ele>
        <time>2019-05-28T11:52:24Z</time>
      </trkpt>
      <trkpt lat="59.972381679626" lon="15.779762006335">
        <ele>96.4</ele>
        <time>2019-05-28T11:52:27Z</time>
      </trkpt>
      <trkpt lat="59.972511850533" lon="15.780009440023">
        <ele>96.6</ele>
        <time>2019-05-28T11:52:32Z</time>
      </trkpt>
      <trkpt lat="59.972537415328" lon="15.780059312328">
        <ele>98</ele>
        <time>2019-05-28T11:52:33Z</time>
      </trkpt>
      <trkpt lat="59.972589886022" lon="15.780154027798">
        <ele>96.6</ele>
        <time>2019-05-28T11:52:35Z</time>
      </trkpt>
      <trkpt lat="59.972721398033" lon="15.780400455658">
        <ele>95.6</ele>
        <time>2019-05-28T11:52:40Z</time>
      </trkpt>
      <trkpt lat="59.972747130466" lon="15.780445466461">
        <ele>95.4</ele>
        <time>2019-05-28T11:52:41Z</time>
      </trkpt>
      <trkpt lat="59.972895825372" lon="15.780733217088">
        <ele>95.6</ele>
        <time>2019-05-28T11:52:47Z</time>
      </trkpt>
      <trkpt lat="59.973016273275" lon="15.781022057362">
        <ele>95.4</ele>
        <time>2019-05-28T11:52:53Z</time>
      </trkpt>
      <trkpt lat="59.973141331223" lon="15.781318776622">
        <ele>95.4</ele>
        <time>2019-05-28T11:52:59Z</time>
      </trkpt>
      <trkpt lat="59.973208302604" lon="15.781655980459">
        <ele>95.8</ele>
        <time>2019-05-28T11:53:05Z</time>
      </trkpt>
      <trkpt lat="59.973309555956" lon="15.781978515971">
        <ele>95.6</ele>
        <time>2019-05-28T11:53:11Z</time>
      </trkpt>
      <trkpt lat="59.973428662755" lon="15.782279929095">
        <ele>96.2</ele>
        <time>2019-05-28T11:53:17Z</time>
      </trkpt>
      <trkpt lat="59.973540477301" lon="15.782565668066">
        <ele>95.6</ele>
        <time>2019-05-28T11:53:23Z</time>
      </trkpt>
      <trkpt lat="59.973639886635" lon="15.782858364014">
        <ele>96</ele>
        <time>2019-05-28T11:53:29Z</time>
      </trkpt>
      <trkpt lat="59.973708450577" lon="15.783034216276">
        <ele>96.4</ele>
        <time>2019-05-28T11:53:33Z</time>
      </trkpt>
      <trkpt lat="59.973837196561" lon="15.783304867827">
        <ele>96.6</ele>
        <time>2019-05-28T11:53:39Z</time>
      </trkpt>
      <trkpt lat="59.973989328046" lon="15.783588427504">
        <ele>97.4</ele>
        <time>2019-05-28T11:53:45Z</time>
      </trkpt>
      <trkpt lat="59.974129389595" lon="15.78381926503">
        <ele>97.6</ele>
        <time>2019-05-28T11:53:50Z</time>
      </trkpt>
      <trkpt lat="59.974280431433" lon="15.784094023712">
        <ele>98.2</ele>
        <time>2019-05-28T11:53:56Z</time>
      </trkpt>
      <trkpt lat="59.974346396986" lon="15.78422578718">
        <ele>99</ele>
        <time>2019-05-28T11:53:59Z</time>
      </trkpt>
      <trkpt lat="59.974473298952" lon="15.784466599167">
        <ele>99.4</ele>
        <time>2019-05-28T11:54:05Z</time>
      </trkpt>
      <trkpt lat="59.974621742401" lon="15.784615294073">
        <ele>99.6</ele>
        <time>2019-05-28T11:54:11Z</time>
      </trkpt>
      <trkpt lat="59.974728695445" lon="15.784713865217">
        <ele>100</ele>
        <time>2019-05-28T11:54:15Z</time>
      </trkpt>
      <trkpt lat="59.974858363438" lon="15.784873372774">
        <ele>100.4</ele>
        <time>2019-05-28T11:54:21Z</time>
      </trkpt>
      <trkpt lat="59.97499565896" lon="15.785101528092">
        <ele>100</ele>
        <time>2019-05-28T11:54:27Z</time>
      </trkpt>
      <trkpt lat="59.975136307242" lon="15.785349129418">
        <ele>100.2</ele>
        <time>2019-05-28T11:54:33Z</time>
      </trkpt>
      <trkpt lat="59.975300676301" lon="15.785602849531">
        <ele>100.4</ele>
        <time>2019-05-28T11:54:39Z</time>
      </trkpt>
      <trkpt lat="59.975414502503" lon="15.785828741736">
        <ele>100.6</ele>
        <time>2019-05-28T11:54:44Z</time>
      </trkpt>
      <trkpt lat="59.975511061991" lon="15.786189247255">
        <ele>100</ele>
        <time>2019-05-28T11:54:50Z</time>
      </trkpt>
      <trkpt lat="59.975573507146" lon="15.786593422473">
        <ele>100.4</ele>
        <time>2019-05-28T11:54:56Z</time>
      </trkpt>
      <trkpt lat="59.975646681133" lon="15.786964908281">
        <ele>100.6</ele>
        <time>2019-05-28T11:55:02Z</time>
      </trkpt>
      <trkpt lat="59.975735696911" lon="15.787295155141">
        <ele>100.4</ele>
        <time>2019-05-28T11:55:08Z</time>
      </trkpt>
      <trkpt lat="59.975766039389" lon="15.787655828298">
        <ele>100.2</ele>
        <time>2019-05-28T11:55:14Z</time>
      </trkpt>
      <trkpt lat="59.975846757086" lon="15.787990685203">
        <ele>100.2</ele>
        <time>2019-05-28T11:55:20Z</time>
      </trkpt>
      <trkpt lat="59.975935018493" lon="15.788318082217">
        <ele>100</ele>
        <time>2019-05-28T11:55:26Z</time>
      </trkpt>
      <trkpt lat="59.976051275446" lon="15.788646736516">
        <ele>99.2</ele>
        <time>2019-05-28T11:55:32Z</time>
      </trkpt>
      <trkpt lat="59.976086479426" lon="15.78876207146">
        <ele>98.8</ele>
        <time>2019-05-28T11:55:34Z</time>
      </trkpt>
      <trkpt lat="59.976182787457" lon="15.789083182049">
        <ele>99</ele>
        <time>2019-05-28T11:55:40Z</time>
      </trkpt>
      <trkpt lat="59.976286136284" lon="15.789403202991">
        <ele>99.2</ele>
        <time>2019-05-28T11:55:46Z</time>
      </trkpt>
      <trkpt lat="59.976392334957" lon="15.789736132059">
        <ele>98.2</ele>
        <time>2019-05-28T11:55:52Z</time>
      </trkpt>
      <trkpt lat="59.976503646589" lon="15.790067803842">
        <ele>98.8</ele>
        <time>2019-05-28T11:55:58Z</time>
      </trkpt>
      <trkpt lat="59.976609509986" lon="15.790390590811">
        <ele>98.4</ele>
        <time>2019-05-28T11:56:04Z</time>
      </trkpt>
      <trkpt lat="59.976741692549" lon="15.790687058614">
        <ele>98</ele>
        <time>2019-05-28T11:56:10Z</time>
      </trkpt>
      <trkpt lat="59.976760216548" lon="15.790746318647">
        <ele>97.8</ele>
        <time>2019-05-28T11:56:11Z</time>
      </trkpt>
      <trkpt lat="59.97687991008" lon="15.79102602265">
        <ele>97.4</ele>
        <time>2019-05-28T11:56:16Z</time>
      </trkpt>
      <trkpt lat="59.977000106526" lon="15.791298602038">
        <ele>97.2</ele>
        <time>2019-05-28T11:56:24Z</time>
      </trkpt>
      <trkpt lat="59.977062384043" lon="15.79140153177">
        <ele>97.4</ele>
        <time>2019-05-28T11:56:30Z</time>
      </trkpt>
      <trkpt lat="59.977113429814" lon="15.791503288036">
        <ele>97.4</ele>
        <time>2019-05-28T11:56:36Z</time>
      </trkpt>
      <trkpt lat="59.977148801432" lon="15.791616192229">
        <ele>97.6</ele>
        <time>2019-05-28T11:56:42Z</time>
      </trkpt>
      <trkpt lat="59.977198841375" lon="15.791749967353">
        <ele>97.6</ele>
        <time>2019-05-28T11:56:48Z</time>
      </trkpt>
      <trkpt lat="59.977267321498" lon="15.791866559582">
        <ele>97.6</ele>
        <time>2019-05-28T11:56:54Z</time>
      </trkpt>
      <trkpt lat="59.977329347558" lon="15.791939733569">
        <ele>97.4</ele>
        <time>2019-05-28T11:57:00Z</time>
      </trkpt>
      <trkpt lat="59.977385757745" lon="15.792009638615">
        <ele>97.4</ele>
        <time>2019-05-28T11:57:06Z</time>
      </trkpt>
      <trkpt lat="59.977440407733" lon="15.79208549481">
        <ele>97.8</ele>
        <time>2019-05-28T11:57:12Z</time>
      </trkpt>
      <trkpt lat="59.977506540924" lon="15.792175935511">
        <ele>97.6</ele>
        <time>2019-05-28T11:57:18Z</time>
      </trkpt>
      <trkpt lat="59.977638388211" lon="15.792372407247">
        <ele>97.8</ele>
        <time>2019-05-28T11:57:25Z</time>
      </trkpt>
      <trkpt lat="59.977792531352" lon="15.792586900068">
        <ele>98.6</ele>
        <time>2019-05-28T11:57:30Z</time>
      </trkpt>
      <trkpt lat="59.977944998113" lon="15.792790664057">
        <ele>98.4</ele>
        <time>2019-05-28T11:57:35Z</time>
      </trkpt>
      <trkpt lat="59.978126214791" lon="15.793014544606">
        <ele>98.6</ele>
        <time>2019-05-28T11:57:41Z</time>
      </trkpt>
      <trkpt lat="59.978158233649" lon="15.793055029183">
        <ele>99</ele>
        <time>2019-05-28T11:57:42Z</time>
      </trkpt>
      <trkpt lat="59.978321848337" lon="15.793251165643">
        <ele>99.8</ele>
        <time>2019-05-28T11:57:47Z</time>
      </trkpt>
      <trkpt lat="59.978484708654" lon="15.793448810845">
        <ele>99.4</ele>
        <time>2019-05-28T11:57:52Z</time>
      </trkpt>
      <trkpt lat="59.97865268193" lon="15.793638577061">
        <ele>99.4</ele>
        <time>2019-05-28T11:57:57Z</time>
      </trkpt>
      <trkpt lat="59.978809591098" lon="15.79383479734">
        <ele>99.6</ele>
        <time>2019-05-28T11:58:02Z</time>
      </trkpt>
      <trkpt lat="59.978977732012" lon="15.794053229654">
        <ele>99.2</ele>
        <time>2019-05-28T11:58:08Z</time>
      </trkpt>
      <trkpt lat="59.979140759967" lon="15.794254227616">
        <ele>98.8</ele>
        <time>2019-05-28T11:58:14Z</time>
      </trkpt>
      <trkpt lat="59.979296579488" lon="15.794503924417">
        <ele>98.2</ele>
        <time>2019-05-28T11:58:20Z</time>
      </trkpt>
      <trkpt lat="59.979392887519" lon="15.794673406435">
        <ele>98</ele>
        <time>2019-05-28T11:58:24Z</time>
      </trkpt>
      <trkpt lat="59.979540660416" lon="15.794907009988">
        <ele>97.4</ele>
        <time>2019-05-28T11:58:30Z</time>
      </trkpt>
      <trkpt lat="59.979715590669" lon="15.795137931333">
        <ele>97.4</ele>
        <time>2019-05-28T11:58:36Z</time>
      </trkpt>
      <trkpt lat="59.97986973381" lon="15.795383521003">
        <ele>96.8</ele>
        <time>2019-05-28T11:58:42Z</time>
      </trkpt>
      <trkpt lat="59.980025218055" lon="15.795620896411">
        <ele>97</ele>
        <time>2019-05-28T11:58:48Z</time>
      </trkpt>
      <trkpt lat="59.980201992326" lon="15.795859277647">
        <ele>96.8</ele>
        <time>2019-05-28T11:58:54Z</time>
      </trkpt>
      <trkpt lat="59.980342137694" lon="15.796104951136">
        <ele>96</ele>
        <time>2019-05-28T11:59:00Z</time>
      </trkpt>
      <trkpt lat="59.980474739352" lon="15.796348110055">
        <ele>96.2</ele>
        <time>2019-05-28T11:59:06Z</time>
      </trkpt>
      <trkpt lat="59.980567024071" lon="15.796508204345">
        <ele>95.8</ele>
        <time>2019-05-28T11:59:10Z</time>
      </trkpt>
      <trkpt lat="59.980678168065" lon="15.796722780985">
        <ele>94.6</ele>
        <time>2019-05-28T11:59:15Z</time>
      </trkpt>
      <trkpt lat="59.980727705094" lon="15.796799894465">
        <ele>93.2</ele>
        <time>2019-05-28T11:59:17Z</time>
      </trkpt>
      <trkpt lat="59.980870113575" lon="15.797048836895">
        <ele>92.6</ele>
        <time>2019-05-28T11:59:23Z</time>
      </trkpt>
      <trkpt lat="59.981020401042" lon="15.797287637226">
        <ele>92.6</ele>
        <time>2019-05-28T11:59:29Z</time>
      </trkpt>
      <trkpt lat="59.981077984695" lon="15.797354273331">
        <ele>92.2</ele>
        <time>2019-05-28T11:59:31Z</time>
      </trkpt>
      <trkpt lat="59.981271438947" lon="15.797495256889">
        <ele>91.6</ele>
        <time>2019-05-28T11:59:37Z</time>
      </trkpt>
      <trkpt lat="59.981459025869" lon="15.79756977198">
        <ele>91.2</ele>
        <time>2019-05-28T11:59:43Z</time>
      </trkpt>
      <trkpt lat="59.98148911689" lon="15.797589301807">
        <ele>91</ele>
        <time>2019-05-28T11:59:44Z</time>
      </trkpt>
      <trkpt lat="59.98160311073" lon="15.797684855467">
        <ele>92.2</ele>
        <time>2019-05-28T11:59:48Z</time>
      </trkpt>
      <trkpt lat="59.981759600803" lon="15.797773535969">
        <ele>91.4</ele>
        <time>2019-05-28T11:59:54Z</time>
      </trkpt>
      <trkpt lat="59.981942326223" lon="15.797857774064">
        <ele>92</ele>
        <time>2019-05-28T12:00:00Z</time>
      </trkpt>
      <trkpt lat="59.982149023877" lon="15.797937318295">
        <ele>91.8</ele>
        <time>2019-05-28T12:00:06Z</time>
      </trkpt>
      <trkpt lat="59.982348848373" lon="15.798044103701">
        <ele>92.2</ele>
        <time>2019-05-28T12:00:12Z</time>
      </trkpt>
      <trkpt lat="59.982533082535" lon="15.798178800834">
        <ele>92.4</ele>
        <time>2019-05-28T12:00:18Z</time>
      </trkpt>
      <trkpt lat="59.982694853205" lon="15.798347444662">
        <ele>92.6</ele>
        <time>2019-05-28T12:00:23Z</time>
      </trkpt>
      <trkpt lat="59.982864670499" lon="15.798604768992">
        <ele>92.6</ele>
        <time>2019-05-28T12:00:31Z</time>
      </trkpt>
      <trkpt lat="59.9828796741" lon="15.798598985481">
        <ele>92.8</ele>
        <time>2019-05-28T12:00:34Z</time>
      </trkpt>
      <trkpt lat="59.982896102624" lon="15.798592028504">
        <ele>92.8</ele>
        <time>2019-05-28T12:00:40Z</time>
      </trkpt>
      <trkpt lat="59.982864419042" lon="15.798625723742">
        <ele>92.6</ele>
        <time>2019-05-28T12:00:46Z</time>
      </trkpt>
      <trkpt lat="59.982848996346" lon="15.798625388466">
        <ele>92.6</ele>
        <time>2019-05-28T12:00:47Z</time>
      </trkpt>
      <trkpt lat="59.982792083245" lon="15.798606864467">
        <ele>92.4</ele>
        <time>2019-05-28T12:00:52Z</time>
      </trkpt>
      <trkpt lat="59.982697116318" lon="15.798591106495">
        <ele>92.4</ele>
        <time>2019-05-28T12:00:57Z</time>
      </trkpt>
      <trkpt lat="59.9826114533" lon="15.798531678824">
        <ele>92.8</ele>
        <time>2019-05-28T12:01:03Z</time>
      </trkpt>
      <trkpt lat="59.982516318735" lon="15.798455990267">
        <ele>92.8</ele>
        <time>2019-05-28T12:01:09Z</time>
      </trkpt>
      <trkpt lat="59.982475834158" lon="15.798428749092">
        <ele>93</ele>
        <time>2019-05-28T12:01:12Z</time>
      </trkpt>
      <trkpt lat="59.982459070358" lon="15.798414499862">
        <ele>93.4</ele>
        <time>2019-05-28T12:01:14Z</time>
      </trkpt>
      <trkpt lat="59.982450353182" lon="15.798409303084">
        <ele>93.4</ele>
        <time>2019-05-28T12:01:15Z</time>
      </trkpt>
      <trkpt lat="59.982434511391" lon="15.798396478777">
        <ele>93.4</ele>
        <time>2019-05-28T12:01:17Z</time>
      </trkpt>
      <trkpt lat="59.982403665999" lon="15.798384911755">
        <ele>93.2</ele>
        <time>2019-05-28T12:01:19Z</time>
      </trkpt>
      <trkpt lat="59.982353961332" lon="15.798337637839">
        <ele>92.6</ele>
        <time>2019-05-28T12:01:22Z</time>
      </trkpt>
      <trkpt lat="59.982237033827" lon="15.798279635091">
        <ele>92.2</ele>
        <time>2019-05-28T12:01:28Z</time>
      </trkpt>
      <trkpt lat="59.982044250127" lon="15.79816991602">
        <ele>91.6</ele>
        <time>2019-05-28T12:01:35Z</time>
      </trkpt>
      <trkpt lat="59.981868062589" lon="15.798074865274">
        <ele>91.8</ele>
        <time>2019-05-28T12:01:40Z</time>
      </trkpt>
      <trkpt lat="59.981812742049" lon="15.798095149472">
        <ele>91.8</ele>
        <time>2019-05-28T12:01:42Z</time>
      </trkpt>
      <trkpt lat="59.981694976354" lon="15.798398909528">
        <ele>93.4</ele>
        <time>2019-05-28T12:01:48Z</time>
      </trkpt>
      <trkpt lat="59.981670836482" lon="15.798436711897">
        <ele>94</ele>
        <time>2019-05-28T12:01:49Z</time>
      </trkpt>
      <trkpt lat="59.981647199524" lon="15.798441741037">
        <ele>94.8</ele>
        <time>2019-05-28T12:01:50Z</time>
      </trkpt>
      <trkpt lat="59.981626831507" lon="15.798414080767">
        <ele>95.2</ele>
        <time>2019-05-28T12:01:51Z</time>
      </trkpt>
      <trkpt lat="59.981560027764" lon="15.798007810074">
        <ele>94.2</ele>
        <time>2019-05-28T12:01:57Z</time>
      </trkpt>
      <trkpt lat="59.981625825679" lon="15.797613609317">
        <ele>94.6</ele>
        <time>2019-05-28T12:02:03Z</time>
      </trkpt>
      <trkpt lat="59.981721630796" lon="15.797246482097">
        <ele>95.4</ele>
        <time>2019-05-28T12:02:09Z</time>
      </trkpt>
      <trkpt lat="59.981736299121" lon="15.79718588096">
        <ele>95.8</ele>
        <time>2019-05-28T12:02:10Z</time>
      </trkpt>
      <trkpt lat="59.981788518358" lon="15.796966945732">
        <ele>97</ele>
        <time>2019-05-28T12:02:14Z</time>
      </trkpt>
      <trkpt lat="59.981877366498" lon="15.796639716356">
        <ele>97.4</ele>
        <time>2019-05-28T12:02:20Z</time>
      </trkpt>
      <trkpt lat="59.981923383129" lon="15.796492781649">
        <ele>98</ele>
        <time>2019-05-28T12:02:23Z</time>
      </trkpt>
      <trkpt lat="59.981974345081" lon="15.796345260209">
        <ele>99.4</ele>
        <time>2019-05-28T12:02:26Z</time>
      </trkpt>
      <trkpt lat="59.982084567066" lon="15.796059856514">
        <ele>99.8</ele>
        <time>2019-05-28T12:02:32Z</time>
      </trkpt>
      <trkpt lat="59.982162351098" lon="15.795873526877">
        <ele>100.4</ele>
        <time>2019-05-28T12:02:36Z</time>
      </trkpt>
      <trkpt lat="59.982281122621" lon="15.795627937207">
        <ele>100.6</ele>
        <time>2019-05-28T12:02:42Z</time>
      </trkpt>
      <trkpt lat="59.982250612505" lon="15.795298360899">
        <ele>100.2</ele>
        <time>2019-05-28T12:02:48Z</time>
      </trkpt>
      <trkpt lat="59.982123710539" lon="15.795022847846">
        <ele>100.2</ele>
        <time>2019-05-28T12:02:54Z</time>
      </trkpt>
      <trkpt lat="59.981989935415" lon="15.794730151898">
        <ele>100.4</ele>
        <time>2019-05-28T12:03:00Z</time>
      </trkpt>
      <trkpt lat="59.981863201087" lon="15.79443577957">
        <ele>99.8</ele>
        <time>2019-05-28T12:03:06Z</time>
      </trkpt>
      <trkpt lat="59.981799079552" lon="15.79426981795">
        <ele>99.2</ele>
        <time>2019-05-28T12:03:09Z</time>
      </trkpt>
      <trkpt lat="59.981663963324" lon="15.793930853914">
        <ele>99</ele>
        <time>2019-05-28T12:03:15Z</time>
      </trkpt>
      <trkpt lat="59.981579557591" lon="15.793691383031">
        <ele>98</ele>
        <time>2019-05-28T12:03:19Z</time>
      </trkpt>
      <trkpt lat="59.981551310588" lon="15.79328243013">
        <ele>97.2</ele>
        <time>2019-05-28T12:03:25Z</time>
      </trkpt>
      <trkpt lat="59.981575618098" lon="15.793140273106">
        <ele>96.8</ele>
        <time>2019-05-28T12:03:27Z</time>
      </trkpt>
      <trkpt lat="59.981701095141" lon="15.792871884668">
        <ele>96.4</ele>
        <time>2019-05-28T12:03:32Z</time>
      </trkpt>
      <trkpt lat="59.981864877467" lon="15.792678262778">
        <ele>96.8</ele>
        <time>2019-05-28T12:03:37Z</time>
      </trkpt>
      <trkpt lat="59.98203058763" lon="15.792478270644">
        <ele>97</ele>
        <time>2019-05-28T12:03:42Z</time>
      </trkpt>
      <trkpt lat="59.982189173178" lon="15.792265454203">
        <ele>97.4</ele>
        <time>2019-05-28T12:03:47Z</time>
      </trkpt>
      <trkpt lat="59.98226192807" lon="15.792164703765">
        <ele>97.8</ele>
        <time>2019-05-28T12:03:50Z</time>
      </trkpt>
    </trkseg>
  </trk>
</gpx>